createdAt,value
2023-12-17T00:00:34.332Z,3.90
2023-12-17T00:03:21.193Z,3.60
2023-12-17T00:05:48.539Z,3.00
2023-12-17T00:08:20.231Z,3.90
2023-12-17T00:10:46.543Z,3.20
2023-12-17T00:13:13.328Z,3.00
2023-12-17T00:15:41.982Z,4.00
2023-12-17T00:18:08.493Z,3.20
2023-12-17T00:20:36.731Z,4.00
2023-12-17T00:23:05.136Z,3.00
2023-12-17T00:25:31.385Z,3.70
2023-12-17T00:27:57.604Z,3.30
2023-12-17T00:30:24.017Z,3.00
2023-12-17T00:32:53.236Z,3.30
2023-12-17T00:35:20.106Z,2.90
2023-12-17T00:37:49.044Z,3.20
2023-12-17T00:40:15.482Z,3.00
2023-12-17T00:42:43.112Z,3.80
2023-12-17T00:45:09.547Z,3.20
2023-12-17T00:47:37.303Z,3.20
2023-12-17T00:50:03.921Z,2.00
2023-12-17T00:52:30.306Z,3.10
2023-12-17T00:54:56.803Z,3.20
2023-12-17T00:57:23.081Z,2.90
2023-12-17T00:59:49.765Z,3.20
2023-12-17T01:02:16.237Z,3.20
2023-12-17T01:04:42.778Z,3.00
2023-12-17T01:07:09.207Z,3.10
2023-12-17T01:09:35.542Z,2.80
2023-12-17T01:12:03.990Z,2.90
2023-12-17T01:14:35.260Z,3.20
2023-12-17T01:17:01.984Z,3.00
2023-12-17T01:19:28.481Z,3.30
2023-12-17T01:21:56.402Z,3.40
2023-12-17T01:24:24.203Z,3.10
2023-12-17T01:26:50.807Z,3.50
2023-12-17T01:29:17.204Z,3.10
2023-12-17T01:31:43.661Z,3.50
2023-12-17T01:34:10.064Z,3.50
2023-12-17T01:36:36.635Z,3.20
2023-12-17T01:39:03.013Z,3.30
2023-12-17T01:41:29.404Z,3.10
2023-12-17T01:43:55.752Z,2.90
2023-12-17T01:46:22.108Z,3.00
2023-12-17T01:48:51.065Z,3.10
2023-12-17T01:51:17.869Z,2.80
2023-12-17T01:53:44.179Z,2.90
2023-12-17T01:56:10.556Z,3.10
2023-12-17T01:58:37.295Z,3.70
2023-12-17T02:01:04.024Z,3.90
2023-12-17T02:03:30.657Z,3.40
2023-12-17T02:05:57.249Z,3.30
2023-12-17T02:08:23.605Z,3.60
2023-12-17T02:10:49.873Z,3.60
2023-12-17T02:13:16.236Z,3.50
2023-12-17T02:15:42.927Z,3.10
2023-12-17T02:18:09.207Z,3.80
2023-12-17T02:20:35.949Z,3.30
2023-12-17T02:23:03.078Z,3.90
2023-12-17T02:25:29.817Z,3.70
2023-12-17T02:27:56.147Z,3.70
2023-12-17T02:30:22.596Z,3.50
2023-12-17T02:32:49.125Z,3.40
2023-12-17T02:35:15.854Z,3.80
2023-12-17T02:37:42.334Z,3.20
2023-12-17T02:40:09.686Z,3.50
2023-12-17T02:42:36.542Z,3.60
2023-12-17T02:45:02.888Z,3.20
2023-12-17T02:47:29.630Z,2.70
2023-12-17T02:49:56.177Z,2.90
2023-12-17T02:52:22.521Z,3.40
2023-12-17T02:54:49.295Z,3.90
2023-12-17T02:57:16.029Z,3.20
2023-12-17T02:59:42.954Z,3.20
2023-12-17T03:02:09.767Z,4.00
2023-12-17T03:04:36.044Z,3.40
2023-12-17T03:07:02.404Z,3.60
2023-12-17T03:09:30.457Z,4.00
2023-12-17T03:11:56.894Z,4.30
2023-12-17T03:14:23.295Z,3.90
2023-12-17T03:16:51.068Z,3.30
2023-12-17T03:19:17.433Z,4.00
2023-12-17T03:21:43.900Z,4.50
2023-12-17T03:24:10.528Z,3.80
2023-12-17T03:26:36.884Z,3.80
2023-12-17T03:29:03.648Z,3.50
2023-12-17T03:31:30.182Z,4.10
2023-12-17T03:33:56.527Z,4.20
2023-12-17T03:36:23.636Z,3.70
2023-12-17T03:38:50.363Z,4.80
2023-12-17T03:41:16.648Z,2.50
2023-12-17T03:43:43.109Z,4.30
2023-12-17T03:46:09.643Z,4.30
2023-12-17T03:48:36.286Z,4.00
2023-12-17T03:51:03.097Z,4.60
2023-12-17T03:53:29.433Z,4.00
2023-12-17T03:55:55.904Z,4.20
2023-12-17T03:58:22.557Z,4.10
2023-12-17T04:00:49.000Z,4.40
2023-12-17T04:03:15.537Z,4.60
2023-12-17T04:05:42.243Z,4.00
2023-12-17T04:08:08.545Z,4.50
2023-12-17T04:10:35.254Z,3.60
2023-12-17T04:13:02.063Z,4.30
2023-12-17T04:15:29.105Z,4.00
2023-12-17T04:17:55.582Z,4.50
2023-12-17T04:20:22.235Z,4.90
2023-12-17T04:22:48.970Z,4.60
2023-12-17T04:25:15.525Z,4.00
2023-12-17T04:27:42.147Z,3.80
2023-12-17T04:30:09.036Z,4.20
2023-12-17T04:32:35.926Z,3.70
2023-12-17T04:35:04.160Z,3.90
2023-12-17T04:37:30.491Z,3.70
2023-12-17T04:39:56.706Z,4.50
2023-12-17T04:42:24.086Z,4.80
2023-12-17T04:44:50.695Z,4.40
2023-12-17T04:47:17.806Z,3.90
2023-12-17T04:49:44.308Z,3.70
2023-12-17T04:52:10.774Z,4.00
2023-12-17T04:54:37.133Z,4.30
2023-12-17T04:57:03.957Z,4.80
2023-12-17T04:59:31.019Z,3.70
2023-12-17T05:01:57.546Z,3.80
2023-12-17T05:04:24.269Z,4.00
2023-12-17T05:06:50.987Z,4.40
2023-12-17T05:09:17.455Z,4.00
2023-12-17T05:11:43.784Z,4.00
2023-12-17T05:14:10.174Z,4.00
2023-12-17T05:16:36.408Z,4.10
2023-12-17T05:19:02.913Z,3.10
2023-12-17T05:21:29.463Z,3.60
2023-12-17T05:23:55.929Z,4.50
2023-12-17T05:26:22.775Z,3.60
2023-12-17T05:28:50.257Z,4.20
2023-12-17T05:31:16.857Z,2.80
2023-12-17T05:33:46.947Z,3.50
2023-12-17T05:36:14.061Z,3.70
2023-12-17T05:38:40.589Z,3.60
2023-12-17T05:41:06.827Z,3.90
2023-12-17T05:43:33.568Z,4.30
2023-12-17T05:46:05.983Z,4.50
2023-12-17T05:48:34.405Z,4.20
2023-12-17T05:51:01.120Z,4.10
2023-12-17T05:53:33.675Z,4.20
2023-12-17T05:56:07.172Z,3.80
2023-12-17T05:58:33.677Z,3.80
2023-12-17T06:01:00.155Z,4.10
2023-12-17T06:03:26.781Z,4.50
2023-12-17T06:05:53.426Z,3.80
2023-12-17T06:08:20.021Z,4.20
2023-12-17T06:10:46.364Z,4.40
2023-12-17T06:13:12.696Z,3.80
2023-12-17T06:15:39.020Z,4.90
2023-12-17T06:18:05.424Z,4.40
2023-12-17T06:20:31.973Z,4.50
2023-12-17T06:22:59.520Z,4.20
2023-12-17T06:25:26.106Z,5.00
2023-12-17T06:27:52.588Z,4.10
2023-12-17T06:30:19.336Z,4.80
2023-12-17T06:32:46.291Z,4.60
2023-12-17T06:35:13.080Z,5.00
2023-12-17T06:37:39.837Z,5.10
2023-12-17T06:40:08.063Z,6.60
2023-12-17T06:42:37.737Z,5.90
2023-12-17T06:45:04.312Z,4.30
2023-12-17T06:47:30.719Z,4.40
2023-12-17T06:49:57.396Z,4.30
2023-12-17T06:52:23.871Z,7.90
2023-12-17T06:54:50.198Z,6.60
2023-12-17T06:57:16.784Z,5.80
2023-12-17T06:59:44.458Z,4.30
2023-12-17T07:02:12.104Z,4.50
2023-12-17T07:04:38.434Z,5.30
2023-12-17T07:07:05.012Z,4.80
2023-12-17T07:09:31.645Z,4.70
2023-12-17T07:11:57.927Z,5.00
2023-12-17T07:14:24.279Z,6.60
2023-12-17T07:16:50.835Z,9.80
2023-12-17T07:19:17.364Z,9.00
2023-12-17T07:21:44.244Z,7.30
2023-12-17T07:24:10.685Z,7.40
2023-12-17T07:26:37.180Z,7.30
2023-12-17T07:29:03.793Z,6.40
2023-12-17T07:31:30.084Z,7.60
2023-12-17T07:33:56.712Z,11.80
2023-12-17T07:36:23.101Z,8.00
2023-12-17T07:38:49.517Z,6.80
2023-12-17T07:41:17.377Z,7.50
2023-12-17T07:43:43.636Z,7.80
2023-12-17T07:46:10.375Z,7.30
2023-12-17T07:48:36.828Z,7.50
2023-12-17T07:51:04.199Z,7.20
2023-12-17T07:53:31.506Z,6.90
2023-12-17T07:55:58.351Z,9.40
2023-12-17T07:58:25.187Z,6.80
2023-12-17T08:00:51.554Z,5.10
2023-12-17T08:03:18.097Z,6.50
2023-12-17T08:05:47.812Z,6.50
2023-12-17T08:08:14.155Z,8.00
2023-12-17T08:10:40.436Z,7.50
2023-12-17T08:13:06.748Z,7.30
2023-12-17T08:15:33.252Z,7.30
2023-12-17T08:17:59.631Z,11.30
2023-12-17T08:20:28.775Z,10.80
2023-12-17T08:22:55.366Z,8.40
2023-12-17T08:25:21.769Z,8.50
2023-12-17T08:27:48.080Z,9.10
2023-12-17T08:30:14.521Z,9.60
2023-12-17T08:32:42.542Z,8.60
2023-12-17T08:35:10.062Z,5.90
2023-12-17T08:37:36.515Z,6.30
2023-12-17T08:40:05.500Z,10.20
2023-12-17T08:42:32.448Z,9.90
2023-12-17T08:44:58.988Z,7.50
2023-12-17T08:47:25.578Z,7.00
2023-12-17T08:49:52.170Z,5.30
2023-12-17T08:52:18.738Z,5.30
2023-12-17T08:54:45.308Z,4.30
2023-12-17T08:57:13.904Z,5.50
2023-12-17T08:59:40.215Z,5.90
2023-12-17T09:02:07.569Z,6.00
2023-12-17T09:04:34.108Z,5.30
2023-12-17T09:07:00.878Z,4.30
2023-12-17T09:09:27.273Z,5.00
2023-12-17T09:11:54.388Z,4.60
2023-12-17T09:14:20.816Z,4.70
2023-12-17T09:16:47.144Z,4.00
2023-12-17T09:19:13.838Z,4.30
2023-12-17T09:21:41.105Z,5.40
2023-12-17T09:24:07.546Z,5.20
2023-12-17T09:26:33.859Z,4.40
2023-12-17T09:29:00.494Z,4.40
2023-12-17T09:31:26.967Z,5.40
2023-12-17T09:33:55.400Z,5.60
2023-12-17T09:36:24.031Z,4.70
2023-12-17T09:38:50.563Z,5.20
2023-12-17T09:41:18.475Z,3.90
2023-12-17T09:43:45.115Z,3.40
2023-12-17T09:46:11.496Z,4.20
2023-12-17T09:48:39.076Z,4.10
2023-12-17T09:51:06.255Z,3.60
2023-12-17T09:53:32.652Z,4.60
2023-12-17T09:55:58.939Z,5.10
2023-12-17T09:58:25.197Z,4.00
2023-12-17T10:00:51.654Z,4.70
2023-12-17T10:03:18.491Z,5.90
2023-12-17T10:05:45.449Z,5.40
2023-12-17T10:08:12.402Z,7.50
2023-12-17T10:10:38.794Z,7.80
2023-12-17T10:13:05.650Z,11.70
2023-12-17T10:15:32.559Z,12.70
2023-12-17T10:17:59.318Z,17.90
2023-12-17T10:20:26.046Z,14.60
2023-12-17T10:22:52.410Z,11.30
2023-12-17T10:25:19.676Z,9.40
2023-12-17T10:27:46.030Z,10.70
2023-12-17T10:30:12.471Z,7.80
2023-12-17T10:32:44.047Z,6.80
2023-12-17T10:35:10.769Z,6.30
2023-12-17T10:37:37.129Z,9.00
2023-12-17T10:40:03.388Z,8.10
2023-12-17T10:42:29.774Z,8.50
2023-12-17T10:44:56.365Z,8.40
2023-12-17T10:47:23.102Z,7.40
2023-12-17T10:49:49.585Z,7.50
2023-12-17T10:52:16.022Z,7.70
2023-12-17T10:54:43.114Z,7.30
2023-12-17T10:57:09.546Z,7.20
2023-12-17T10:59:40.950Z,7.40
2023-12-17T11:02:08.063Z,7.00
2023-12-17T11:04:34.683Z,7.60
2023-12-17T11:07:01.456Z,7.70
2023-12-17T11:09:28.316Z,8.30
2023-12-17T11:11:55.164Z,7.30
2023-12-17T11:14:21.629Z,7.50
2023-12-17T11:16:48.115Z,6.70
2023-12-17T11:19:14.939Z,7.40
2023-12-17T11:21:42.362Z,7.30
2023-12-17T11:24:09.519Z,8.10
2023-12-17T11:26:35.917Z,8.10
2023-12-17T11:29:02.231Z,8.80
2023-12-17T11:31:28.570Z,6.30
2023-12-17T11:33:55.259Z,6.90
2023-12-17T11:36:21.722Z,5.70
2023-12-17T11:38:48.021Z,5.20
2023-12-17T11:41:17.799Z,5.70
2023-12-17T11:43:44.615Z,5.80
2023-12-17T11:46:12.601Z,6.20
2023-12-17T11:48:42.351Z,5.30
2023-12-17T11:51:08.890Z,5.50
2023-12-17T11:53:36.797Z,5.30
2023-12-17T11:56:04.608Z,5.30
2023-12-17T11:58:31.039Z,5.90
2023-12-17T12:00:57.333Z,6.70
2023-12-17T12:03:23.793Z,6.40
2023-12-17T12:05:50.806Z,6.40
2023-12-17T12:08:19.272Z,6.90
2023-12-17T12:10:45.583Z,6.20
2023-12-17T12:13:15.772Z,8.10
2023-12-17T12:15:42.099Z,7.40
2023-12-17T12:18:08.956Z,9.40
2023-12-17T12:20:35.919Z,8.50
2023-12-17T12:23:02.246Z,8.00
2023-12-17T12:25:28.703Z,7.00
2023-12-17T12:27:55.181Z,6.60
2023-12-17T12:30:21.987Z,6.60
2023-12-17T12:32:48.648Z,6.20
2023-12-17T12:35:14.916Z,6.10
2023-12-17T12:37:41.554Z,6.30
2023-12-17T12:40:11.509Z,5.90
2023-12-17T12:42:39.191Z,5.10
2023-12-17T12:45:05.853Z,5.30
2023-12-17T12:47:33.005Z,6.00
2023-12-17T12:49:59.451Z,5.10
2023-12-17T12:52:25.864Z,3.50
2023-12-17T12:54:52.877Z,3.70
2023-12-17T12:57:19.762Z,4.00
2023-12-17T12:59:46.278Z,3.50
2023-12-17T13:02:12.676Z,4.00
2023-12-17T13:04:39.329Z,4.50
2023-12-17T13:07:05.719Z,3.80
2023-12-17T13:09:32.422Z,3.70
2023-12-17T13:11:58.753Z,4.10
2023-12-17T13:14:26.059Z,3.40
2023-12-17T13:16:52.517Z,3.60
2023-12-17T13:19:20.084Z,4.10
2023-12-17T13:22:07.324Z,3.70
2023-12-17T13:24:34.542Z,3.50
2023-12-17T13:27:02.903Z,4.50
2023-12-17T13:29:29.393Z,5.20
2023-12-17T13:31:55.868Z,4.80
2023-12-17T13:34:23.209Z,5.20
2023-12-17T13:36:52.309Z,4.60
2023-12-17T13:39:18.768Z,5.50
2023-12-17T13:41:48.995Z,5.70
2023-12-17T13:44:23.657Z,5.50
2023-12-17T13:46:49.995Z,4.20
2023-12-17T13:49:17.089Z,4.60
2023-12-17T13:51:43.410Z,4.30
2023-12-17T13:54:10.194Z,3.90
2023-12-17T13:56:41.017Z,4.40
2023-12-17T13:59:09.199Z,3.70
2023-12-17T14:01:35.618Z,3.80
2023-12-17T14:04:03.771Z,5.40
2023-12-17T14:06:30.860Z,5.80
2023-12-17T14:09:01.505Z,4.70
2023-12-17T14:11:33.930Z,4.40
2023-12-17T14:14:02.074Z,4.80
2023-12-17T14:16:31.686Z,5.30
2023-12-17T14:18:58.487Z,5.30
2023-12-17T14:21:24.869Z,5.20
2023-12-17T14:23:52.003Z,4.10
2023-12-17T14:26:18.740Z,7.90
2023-12-17T14:28:45.070Z,7.40
2023-12-17T14:31:14.473Z,4.90
2023-12-17T14:33:42.281Z,5.90
2023-12-17T14:36:09.068Z,10.20
2023-12-17T14:38:36.007Z,11.30
2023-12-17T14:41:02.395Z,7.60
2023-12-17T14:43:28.684Z,8.40
2023-12-17T14:45:55.354Z,4.90
2023-12-17T14:48:21.811Z,5.20
2023-12-17T14:50:48.884Z,5.20
2023-12-17T14:53:15.136Z,5.10
2023-12-17T14:55:42.032Z,4.00
2023-12-17T14:58:08.468Z,5.40
2023-12-17T15:00:35.600Z,8.70
2023-12-17T15:03:02.287Z,7.80
2023-12-17T15:05:29.818Z,5.60
2023-12-17T15:07:56.525Z,4.80
2023-12-17T15:10:22.767Z,5.40
2023-12-17T15:12:49.407Z,6.40
2023-12-17T15:15:16.542Z,6.90
2023-12-17T15:17:43.852Z,5.10
2023-12-17T15:20:12.487Z,6.90
2023-12-17T15:22:39.141Z,8.40
2023-12-17T15:25:05.659Z,8.30
2023-12-17T15:27:32.194Z,8.40
2023-12-17T15:30:00.818Z,7.60
2023-12-17T15:32:27.446Z,8.40
2023-12-17T15:34:56.300Z,10.50
2023-12-17T15:37:23.599Z,10.40
2023-12-17T15:39:50.169Z,11.10
2023-12-17T15:42:19.184Z,9.90
2023-12-17T15:44:48.316Z,9.80
2023-12-17T15:47:15.285Z,9.60
2023-12-17T15:49:43.019Z,9.90
2023-12-17T15:52:09.254Z,6.90
2023-12-17T15:54:36.245Z,7.70
2023-12-17T15:57:03.201Z,6.10
2023-12-17T15:59:29.621Z,6.80
2023-12-17T16:01:57.039Z,7.20
2023-12-17T16:04:23.684Z,9.60
2023-12-17T16:06:50.489Z,8.50
2023-12-17T16:09:17.694Z,9.10
2023-12-17T16:11:44.308Z,9.30
2023-12-17T16:14:13.477Z,14.20
2023-12-17T16:16:39.847Z,14.60
2023-12-17T16:19:07.625Z,13.60
2023-12-17T16:21:35.073Z,11.60
2023-12-17T16:24:01.486Z,14.90
2023-12-17T16:26:28.379Z,18.30
2023-12-17T16:28:57.297Z,14.60
2023-12-17T16:31:26.952Z,11.90
2023-12-17T16:33:53.582Z,17.40
2023-12-17T16:36:20.177Z,14.80
2023-12-17T16:38:47.229Z,12.50
2023-12-17T16:41:14.212Z,15.90
2023-12-17T16:43:44.784Z,13.10
2023-12-17T16:46:12.443Z,12.40
2023-12-17T16:48:41.510Z,15.30
2023-12-17T16:51:24.431Z,15.30
2023-12-17T16:53:50.803Z,17.10
2023-12-17T16:56:17.712Z,16.80
2023-12-17T16:58:44.210Z,15.50
2023-12-17T17:01:11.110Z,19.80
2023-12-17T17:03:38.251Z,19.00
2023-12-17T17:06:04.984Z,23.90
2023-12-17T17:08:31.336Z,19.80
2023-12-17T17:11:01.315Z,20.00
2023-12-17T17:13:33.908Z,20.60
2023-12-17T17:16:01.228Z,18.90
2023-12-17T17:18:30.701Z,18.00
2023-12-17T17:20:57.306Z,17.00
2023-12-17T17:23:23.756Z,19.00
2023-12-17T17:25:50.623Z,14.30
2023-12-17T17:28:18.118Z,15.80
2023-12-17T17:30:44.508Z,16.50
2023-12-17T17:33:11.116Z,14.80
2023-12-17T17:35:37.650Z,14.50
2023-12-17T17:38:03.965Z,17.20
2023-12-17T17:40:30.510Z,15.80
2023-12-17T17:42:56.809Z,13.50
2023-12-17T17:45:23.086Z,10.80
2023-12-17T17:47:49.473Z,10.00
2023-12-17T17:50:15.811Z,10.30
2023-12-17T17:52:42.345Z,9.10
2023-12-17T17:55:10.792Z,11.20
2023-12-17T17:57:39.444Z,13.00
2023-12-17T18:00:05.880Z,13.90
2023-12-17T18:02:32.245Z,10.50
2023-12-17T18:04:58.600Z,8.90
2023-12-17T18:07:25.086Z,9.40
2023-12-17T18:09:51.387Z,10.00
2023-12-17T18:12:17.892Z,9.60
2023-12-17T18:14:44.157Z,8.90
2023-12-17T18:17:10.711Z,7.90
2023-12-17T18:19:37.219Z,9.40
2023-12-17T18:22:03.845Z,7.20
2023-12-17T18:24:30.487Z,5.60
2023-12-17T18:27:02.653Z,6.20
2023-12-17T18:29:29.115Z,5.40
2023-12-17T18:31:55.547Z,7.20
2023-12-17T18:34:24.226Z,8.10
2023-12-17T18:36:52.423Z,8.40
2023-12-17T18:39:18.860Z,7.60
2023-12-17T18:41:47.318Z,7.30
2023-12-17T18:44:13.569Z,6.60
2023-12-17T18:46:39.992Z,8.00
2023-12-17T18:49:06.497Z,6.70
2023-12-17T18:51:33.057Z,7.60
2023-12-17T18:53:59.574Z,7.30
2023-12-17T18:56:26.085Z,6.70
2023-12-17T18:58:52.418Z,8.30
2023-12-17T19:01:20.035Z,9.50
2023-12-17T19:03:47.007Z,8.80
2023-12-17T19:06:13.732Z,7.90
2023-12-17T19:08:40.955Z,7.80
2023-12-17T19:11:08.460Z,6.80
2023-12-17T19:13:34.790Z,7.80
2023-12-17T19:16:03.533Z,8.10
2023-12-17T19:18:30.509Z,9.20
2023-12-17T19:20:57.029Z,9.40
2023-12-17T19:23:23.520Z,9.20
2023-12-17T19:25:49.894Z,12.40
2023-12-17T19:28:16.152Z,11.00
2023-12-17T19:30:42.610Z,9.60
2023-12-17T19:33:12.464Z,8.50
2023-12-17T19:35:40.940Z,9.50
2023-12-17T19:38:07.577Z,10.00
2023-12-17T19:40:35.145Z,8.40
2023-12-17T19:43:01.475Z,10.30
2023-12-17T19:45:30.139Z,9.10
2023-12-17T19:47:57.655Z,8.90
2023-12-17T19:50:24.874Z,8.00
2023-12-17T19:52:51.358Z,7.30
2023-12-17T19:55:17.821Z,8.10
2023-12-17T19:57:45.429Z,9.30
2023-12-17T20:00:11.870Z,10.40
2023-12-17T20:02:40.624Z,11.10
2023-12-17T20:05:07.224Z,11.20
2023-12-17T20:07:34.012Z,12.00
2023-12-17T20:10:00.525Z,12.30
2023-12-17T20:12:26.964Z,14.00
2023-12-17T20:14:53.198Z,12.40
2023-12-17T20:17:20.746Z,10.60
2023-12-17T20:19:47.142Z,8.70
2023-12-17T20:22:13.632Z,8.30
2023-12-17T20:24:40.312Z,9.30
2023-12-17T20:27:06.998Z,8.90
2023-12-17T20:29:33.405Z,7.70
2023-12-17T20:31:59.780Z,9.00
2023-12-17T20:34:26.283Z,8.40
2023-12-17T20:36:54.415Z,7.70
2023-12-17T20:39:20.764Z,7.30
2023-12-17T20:41:47.349Z,8.30
2023-12-17T20:44:14.059Z,9.40
2023-12-17T20:46:40.533Z,9.70
2023-12-17T20:49:06.876Z,12.60
2023-12-17T20:51:33.593Z,13.80
2023-12-17T20:54:00.405Z,13.50
2023-12-17T20:56:26.676Z,12.60
2023-12-17T20:58:55.994Z,10.90
2023-12-17T21:01:22.434Z,10.90
2023-12-17T21:03:49.441Z,11.20
2023-12-17T21:06:16.154Z,7.70
2023-12-17T21:08:42.689Z,7.70
2023-12-17T21:11:12.466Z,8.00
2023-12-17T21:13:39.772Z,7.80
2023-12-17T21:16:13.764Z,7.70
2023-12-17T21:18:41.061Z,8.60
2023-12-17T21:21:09.661Z,8.80
2023-12-17T21:23:36.312Z,7.60
2023-12-17T21:26:03.224Z,7.50
2023-12-17T21:28:29.764Z,7.70
2023-12-17T21:30:58.548Z,6.70
2023-12-17T21:33:25.072Z,7.60
2023-12-17T21:36:08.332Z,8.70
2023-12-17T21:38:49.254Z,6.10
2023-12-17T21:41:19.179Z,6.60
2023-12-17T21:43:46.328Z,6.40
2023-12-17T21:46:14.229Z,7.30
2023-12-17T21:48:49.892Z,7.10
2023-12-17T21:51:17.691Z,7.40
2023-12-17T21:53:44.199Z,6.90
2023-12-17T21:56:10.638Z,5.70
2023-12-17T21:58:37.096Z,7.40
2023-12-17T22:01:03.904Z,7.60
2023-12-17T22:03:30.334Z,7.10
2023-12-17T22:05:56.672Z,7.00
2023-12-17T22:08:23.466Z,8.20
2023-12-17T22:10:49.855Z,8.20
2023-12-17T22:13:17.860Z,8.60
2023-12-17T22:15:44.365Z,6.30
2023-12-17T22:18:14.949Z,6.30
2023-12-17T22:20:41.685Z,6.80
2023-12-17T22:23:08.079Z,6.00
2023-12-17T22:25:34.471Z,6.30
2023-12-17T22:28:03.323Z,6.30
2023-12-17T22:30:29.915Z,6.90
2023-12-17T22:32:56.400Z,6.60
2023-12-17T22:35:23.570Z,6.30
2023-12-17T22:37:50.372Z,5.40
2023-12-17T22:40:16.796Z,5.50
2023-12-17T22:42:43.452Z,6.60
2023-12-17T22:45:10.243Z,6.70
2023-12-17T22:47:36.693Z,6.50
2023-12-17T22:50:03.144Z,6.10
2023-12-17T22:52:29.581Z,6.20
2023-12-17T22:54:57.752Z,5.90
2023-12-17T22:57:24.517Z,7.00
2023-12-17T22:59:51.032Z,6.80
2023-12-17T23:02:17.254Z,7.50
2023-12-17T23:04:43.682Z,6.10
2023-12-17T23:07:10.123Z,5.00
2023-12-17T23:09:36.769Z,4.70
2023-12-17T23:12:03.324Z,5.40
2023-12-17T23:14:30.245Z,5.10
2023-12-17T23:16:58.874Z,4.60
2023-12-17T23:19:25.329Z,5.20
2023-12-17T23:21:51.701Z,4.20
2023-12-17T23:24:18.022Z,4.20
2023-12-17T23:26:44.518Z,4.00
2023-12-17T23:29:10.887Z,4.20
2023-12-17T23:31:37.075Z,4.40
2023-12-17T23:34:03.527Z,4.50
2023-12-17T23:36:30.059Z,4.90
2023-12-17T23:38:56.371Z,5.00
2023-12-17T23:41:22.763Z,5.20
2023-12-17T23:43:49.002Z,5.90
2023-12-17T23:46:19.849Z,5.90
2023-12-17T23:48:46.385Z,7.00
2023-12-17T23:51:13.040Z,6.10
2023-12-17T23:53:40.573Z,6.20
2023-12-17T23:56:07.282Z,6.70
2023-12-17T23:58:33.682Z,6.20
